KLRU/LRU METAR and TAF weather

Enter ICAO airport designator
Station Type Date Time Source
KLRU METAR 2022/01/27 23:15 UTC NOAA

KLRU 272315Z AUTO 28008KT 10SM CLR 15/M09 A3011 RMK AO2 T01541089


Station Type Date Time Source
KLRU Decoded METAR 2022/01/27 23:15 UTC NOAA

Las Cruces, Las Cruces International Airport, NM, United States (KLRU) 32-17-22N 106-55-19W
Jan 27, 2022 - 06:15 PM EST / 2022.01.27 2315 UTC
Wind: from the W (280 degrees) at 9 MPH (8 KT):0
Visibility: 10 mile(s):0
Sky conditions: clear
Temperature: 59.7 F (15.4 C)
Dew Point: 16.0 F (-8.9 C)
Relative Humidity: 17%
Pressure (altimeter): 30.11 in. Hg (1019 hPa)
ob: KLRU 272315Z AUTO 28008KT 10SM CLR 15/M09 A3011 RMK AO2 T01541089
cycle: 23

Station Type Date Time Source
KLRU TAF 2022/01/27 18:51 UTC NOAA

TAF KLRU 271749Z 2718/2818 36004KT P6SM SCT250
FM280500 02011KT P6SM FEW250 WS020/08035KT
FM281000 02010G19KT P6SM FEW250

Example: see airport list